createdAt,value
2019-05-06T00:03:39.992Z,5.08
2019-05-06T00:08:44.631Z,4.42
2019-05-06T00:13:49.197Z,3.50
2019-05-06T00:18:54.228Z,3.50
2019-05-06T00:23:58.913Z,3.67
2019-05-06T00:29:05.250Z,3.95
2019-05-06T00:34:09.958Z,3.80
2019-05-06T00:39:33.684Z,5.00
2019-05-06T00:44:38.356Z,4.22
2019-05-06T00:49:43.618Z,4.30
2019-05-06T00:54:48.259Z,4.42
2019-05-06T00:59:53.838Z,4.20
2019-05-06T01:04:58.571Z,4.70
2019-05-06T01:10:03.772Z,4.72
2019-05-06T01:15:14.277Z,4.53
2019-05-06T01:20:18.993Z,4.42
2019-05-06T01:25:23.847Z,6.30
2019-05-06T01:30:28.622Z,4.47
2019-05-06T01:35:35.072Z,5.75
2019-05-06T01:40:54.688Z,5.17
2019-05-06T01:45:59.409Z,5.33
2019-05-06T01:51:04.021Z,5.30
2019-05-06T01:56:08.564Z,6.12
2019-05-06T02:01:14.756Z,8.33
2019-05-06T02:06:19.617Z,6.22
2019-05-06T02:11:24.285Z,4.92
2019-05-06T02:16:28.764Z,5.20
2019-05-06T02:21:35.046Z,4.80
2019-05-06T02:26:39.593Z,5.03
2019-05-06T02:31:54.603Z,4.78
2019-05-06T02:37:05.965Z,4.87
2019-05-06T02:42:08.777Z,4.87
2019-05-06T02:47:34.040Z,5.53
2019-05-06T02:52:37.181Z,5.00
2019-05-06T02:57:43.989Z,5.25
2019-05-06T03:02:48.716Z,5.35
2019-05-06T03:07:57.464Z,5.80
2019-05-06T03:13:02.987Z,6.08
2019-05-06T03:18:07.033Z,5.85
2019-05-06T03:23:15.888Z,7.08
2019-05-06T03:28:22.550Z,6.37
2019-05-06T03:33:47.066Z,6.33
2019-05-06T03:38:33.886Z,6.03
2019-05-06T03:43:38.439Z,7.25
2019-05-06T03:48:53.371Z,6.47
2019-05-06T03:54:00.080Z,7.12
2019-05-06T03:59:05.219Z,6.28
2019-05-06T04:04:12.488Z,6.45
2019-05-06T04:09:16.068Z,6.30
2019-05-06T04:14:23.866Z,6.50
2019-05-06T04:19:33.417Z,6.67
2019-05-06T04:24:45.680Z,7.10
2019-05-06T04:29:50.312Z,7.58
2019-05-06T04:34:55.010Z,7.80
2019-05-06T04:39:59.622Z,7.78
2019-05-06T04:45:05.009Z,7.65
2019-05-06T04:50:12.927Z,6.45
2019-05-06T04:55:16.476Z,8.00
2019-05-06T05:00:23.388Z,6.70
2019-05-06T05:05:32.836Z,7.05
2019-05-06T05:10:43.140Z,7.67
2019-05-06T05:16:04.824Z,6.65
2019-05-06T05:21:11.893Z,6.75
2019-05-06T05:26:16.650Z,8.63
2019-05-06T05:31:23.067Z,8.13
2019-05-06T05:36:27.740Z,8.30
2019-05-06T05:41:33.137Z,8.08
2019-05-06T05:46:38.853Z,8.35
2019-05-06T05:51:43.594Z,7.65
2019-05-06T05:56:48.680Z,6.47
2019-05-06T06:01:55.604Z,7.50
2019-05-06T06:07:02.497Z,7.50
2019-05-06T06:12:07.416Z,7.03
2019-05-06T06:17:29.003Z,8.23
2019-05-06T06:22:33.857Z,8.20
2019-05-06T06:27:51.854Z,7.03
2019-05-06T06:32:56.000Z,7.28
2019-05-06T06:38:08.221Z,8.73
2019-05-06T06:43:14.498Z,9.03
2019-05-06T06:48:19.232Z,9.23
2019-05-06T06:53:23.833Z,9.23
2019-05-06T06:58:32.178Z,10.35
2019-05-06T07:03:43.203Z,8.95
2019-05-06T07:08:47.957Z,7.78
2019-05-06T07:13:54.253Z,7.33
2019-05-06T07:18:58.829Z,6.87
2019-05-06T07:24:03.600Z,7.37
2019-05-06T07:29:16.817Z,7.58
2019-05-06T07:34:14.474Z,7.35
2019-05-06T07:39:19.047Z,7.95
2019-05-06T07:44:42.360Z,7.67
2019-05-06T07:49:46.964Z,6.95
2019-05-06T07:54:57.476Z,7.10
2019-05-06T08:00:03.350Z,7.33
2019-05-06T08:05:08.425Z,7.47
2019-05-06T08:10:13.672Z,3.50
2019-05-06T08:15:18.312Z,2.72
2019-05-06T08:20:24.857Z,2.17
2019-05-06T08:25:32.907Z,2.27
2019-05-06T08:30:37.571Z,1.95
2019-05-06T08:35:42.688Z,1.98
2019-05-06T08:40:49.059Z,1.70
2019-05-06T08:45:53.567Z,1.80
2019-05-06T08:51:03.028Z,2.10
2019-05-06T08:56:08.956Z,1.27
2019-05-06T09:01:16.358Z,1.55
2019-05-06T09:06:27.574Z,1.95
2019-05-06T09:11:32.136Z,2.02
2019-05-06T09:16:34.099Z,1.40
2019-05-06T09:21:38.742Z,1.42
2019-05-06T09:26:47.748Z,1.65
2019-05-06T09:31:54.034Z,1.47
2019-05-06T09:37:16.277Z,1.50
2019-05-06T09:42:23.053Z,1.50
2019-05-06T09:47:33.019Z,1.22
2019-05-06T09:52:37.836Z,1.62
2019-05-06T09:58:00.069Z,1.98
2019-05-06T10:03:05.348Z,2.00
2019-05-06T10:08:12.247Z,1.72
2019-05-06T10:13:16.259Z,1.30
2019-05-06T10:18:22.655Z,1.30
2019-05-06T10:23:27.436Z,1.27
2019-05-06T10:28:34.030Z,1.20
2019-05-06T10:33:40.283Z,1.30
2019-05-06T10:38:55.133Z,1.62
2019-05-06T10:44:17.552Z,1.70
2019-05-06T10:49:23.270Z,1.72
2019-05-06T10:54:27.934Z,1.50
2019-05-06T10:59:33.383Z,1.45
2019-05-06T11:04:38.383Z,1.72
2019-05-06T11:09:43.067Z,2.10
2019-05-06T11:14:48.729Z,2.10
2019-05-06T11:19:53.459Z,1.82
2019-05-06T11:24:58.185Z,2.30
2019-05-06T11:30:04.457Z,3.70
2019-05-06T11:35:17.026Z,2.20
2019-05-06T11:40:23.489Z,2.10
2019-05-06T11:45:28.213Z,2.30
2019-05-06T11:50:33.419Z,2.50
2019-05-06T11:55:38.946Z,3.25
2019-05-06T12:00:48.769Z,3.45
2019-05-06T12:05:53.484Z,3.22
2019-05-06T12:10:58.214Z,3.80
2019-05-06T12:16:03.075Z,3.12
2019-05-06T12:21:11.389Z,3.87
2019-05-06T12:26:16.091Z,4.10
2019-05-06T12:31:23.486Z,3.90
2019-05-06T12:36:28.384Z,3.65
2019-05-06T12:41:34.747Z,3.30
2019-05-06T12:46:43.850Z,3.25
2019-05-06T12:51:48.743Z,2.95
2019-05-06T12:56:55.123Z,3.45
2019-05-06T13:02:02.599Z,3.02
2019-05-06T13:07:08.004Z,3.20
2019-05-06T13:12:14.388Z,3.30
2019-05-06T13:17:22.763Z,3.35
2019-05-06T13:22:37.488Z,3.45
2019-05-06T13:27:42.982Z,3.33
2019-05-06T13:32:49.361Z,3.00
2019-05-06T13:37:53.956Z,3.22
2019-05-06T13:43:13.062Z,3.20
2019-05-06T13:48:22.970Z,3.08
2019-05-06T13:53:39.048Z,3.98
2019-05-06T13:58:34.294Z,3.08
2019-05-06T14:03:38.994Z,2.50
2019-05-06T14:08:43.633Z,3.00
2019-05-06T14:13:48.125Z,3.02
2019-05-06T14:18:54.791Z,2.90
2019-05-06T14:23:59.361Z,2.87
2019-05-06T14:29:08.826Z,2.90
2019-05-06T14:34:14.349Z,2.80
2019-05-06T14:39:23.654Z,3.27
2019-05-06T14:44:26.933Z,4.00
2019-05-06T14:49:32.581Z,4.12
2019-05-06T14:54:39.126Z,4.15
2019-05-06T14:59:43.682Z,4.25
2019-05-06T15:04:48.313Z,4.03
2019-05-06T15:10:02.499Z,3.95
2019-05-06T15:14:59.193Z,4.33
2019-05-06T15:20:05.039Z,4.03
2019-05-06T15:25:09.731Z,4.30
2019-05-06T15:30:34.074Z,5.17
2019-05-06T15:35:46.193Z,5.80
2019-05-06T15:40:52.529Z,5.87
2019-05-06T15:45:57.546Z,7.05
2019-05-06T15:51:02.233Z,5.80
2019-05-06T15:56:06.921Z,6.80
2019-05-06T16:01:14.286Z,7.05
2019-05-06T16:06:17.980Z,6.53
2019-05-06T16:11:22.630Z,6.30
2019-05-06T16:16:27.295Z,6.62
2019-05-06T16:21:33.450Z,5.00
2019-05-06T16:26:38.248Z,5.12
2019-05-06T16:31:42.898Z,5.05
2019-05-06T16:36:49.104Z,4.47
2019-05-06T16:41:53.791Z,3.90
2019-05-06T16:47:00.072Z,4.33
2019-05-06T16:52:04.735Z,3.67
2019-05-06T16:57:13.586Z,6.85
2019-05-06T17:02:19.738Z,3.80
2019-05-06T17:07:24.872Z,4.12
2019-05-06T17:12:31.805Z,3.98
2019-05-06T17:17:43.431Z,3.50
2019-05-06T17:22:43.795Z,4.10
2019-05-06T17:27:49.779Z,6.47
2019-05-06T17:33:13.484Z,4.35
2019-05-06T17:38:19.659Z,4.85
2019-05-06T17:43:24.266Z,4.22
2019-05-06T17:48:43.997Z,4.75
2019-05-06T17:53:52.249Z,5.30
2019-05-06T17:58:56.712Z,5.90
2019-05-06T18:04:02.219Z,5.45
2019-05-06T18:09:09.124Z,6.10
2019-05-06T18:14:17.097Z,4.97
2019-05-06T18:19:22.354Z,6.40
2019-05-06T18:24:26.910Z,6.12
2019-05-06T18:29:33.475Z,6.37
2019-05-06T18:34:38.705Z,13.60
2019-05-06T18:39:43.212Z,7.15
2019-05-06T18:44:47.866Z,5.42
2019-05-06T18:49:54.858Z,7.70
2019-05-06T18:54:59.636Z,5.25
2019-05-06T19:00:07.600Z,5.05
2019-05-06T19:05:14.242Z,4.92
2019-05-06T19:10:23.560Z,5.17
2019-05-06T19:15:29.165Z,4.55
2019-05-06T19:20:34.043Z,5.78
2019-05-06T19:25:42.692Z,6.20
2019-05-06T19:30:46.663Z,5.87
2019-05-06T19:35:52.272Z,6.47
2019-05-06T19:40:56.972Z,7.42
2019-05-06T19:46:02.619Z,8.18
2019-05-06T19:51:08.996Z,15.72
2019-05-06T19:56:13.529Z,11.22
2019-05-06T20:01:18.213Z,11.83
2019-05-06T20:06:24.513Z,12.73
2019-05-06T20:11:32.974Z,13.22
2019-05-06T20:16:37.492Z,13.88
2019-05-06T20:21:42.574Z,14.25
2019-05-06T20:27:10.295Z,16.50
2019-05-06T20:32:16.022Z,17.50
2019-05-06T20:37:22.285Z,19.55
2019-05-06T20:42:28.507Z,17.87
2019-05-06T20:48:12.701Z,21.45
2019-05-06T20:53:36.135Z,20.23
2019-05-06T20:58:47.306Z,21.50
2019-05-06T21:03:52.908Z,20.48
2019-05-06T21:08:57.685Z,21.45
2019-05-06T21:14:02.399Z,21.73
2019-05-06T21:19:12.421Z,21.97
2019-05-06T21:24:37.141Z,22.40
2019-05-06T21:29:47.270Z,24.45
2019-05-06T21:34:53.542Z,24.40
2019-05-06T21:39:59.159Z,22.63
2019-05-06T21:45:03.953Z,22.80
2019-05-06T21:50:09.042Z,22.00
2019-05-06T21:55:15.307Z,19.07
2019-05-06T22:00:23.424Z,21.37
2019-05-06T22:05:49.732Z,18.80
2019-05-06T22:10:54.368Z,17.98
2019-05-06T22:15:59.069Z,16.40
2019-05-06T22:21:11.562Z,17.00
2019-05-06T22:26:16.460Z,16.30
2019-05-06T22:31:23.831Z,16.12
2019-05-06T22:36:27.751Z,15.95
2019-05-06T22:41:32.672Z,16.52
2019-05-06T22:46:38.574Z,16.42
2019-05-06T22:51:43.184Z,16.07
2019-05-06T22:56:48.197Z,15.68
2019-05-06T23:02:10.494Z,15.13
2019-05-06T23:07:15.268Z,13.03
2019-05-06T23:12:20.461Z,11.85
2019-05-06T23:17:25.189Z,10.70
2019-05-06T23:22:31.574Z,10.63
2019-05-06T23:27:36.210Z,9.43
2019-05-06T23:32:42.240Z,8.55
2019-05-06T23:38:23.087Z,8.95
2019-05-06T23:44:03.496Z,8.43
2019-05-06T23:49:43.992Z,8.20
2019-05-06T23:55:24.448Z,8.68
